Time;durP1;ratioP1;P1;durP2;ratioP2;P2;SDS_P1;SDS_P2;PMS_P1;PMS_P2;Temp;Humidity;BMP_temperature;BMP_pressure;BME280_temperature;BME280_humidity;BME280_pressure;Samples;Min_cycle;Max_cycle;Signal;HPM_P1;HPM_P2
2020/12/15 00:01:10;;;;;;;5.23;3.00;;;11.20;99.90;;;;;;4887109;29;20179;-83
2020/12/15 00:03:36;;;;;;;6.63;3.73;;;11.10;99.90;;;;;;4899216;29;20186;-87
2020/12/15 00:06:01;;;;;;;5.77;3.30;;;11.00;99.90;;;;;;4903575;29;20206;-86
2020/12/15 00:08:27;;;;;;;4.70;3.10;;;11.00;99.90;;;;;;4903214;29;20190;-88
2020/12/15 00:10:53;;;;;;;5.10;3.37;;;10.90;99.90;;;;;;4894637;29;20182;-82
2020/12/15 00:13:18;;;;;;;7.00;3.50;;;11.00;99.90;;;;;;4884004;29;20209;-82
2020/12/15 00:15:44;;;;;;;4.80;3.40;;;11.10;99.90;;;;;;4883990;29;20277;-86
2020/12/15 00:18:09;;;;;;;7.43;3.83;;;11.20;99.90;;;;;;4886079;29;20239;-86
2020/12/15 00:20:38;;;;;;;6.20;3.27;;;11.20;99.90;;;;;;4884721;29;20587;-84
2020/12/15 00:23:04;;;;;;;4.87;3.23;;;11.10;99.90;;;;;;4885074;29;20187;-84
2020/12/15 00:25:29;;;;;;;5.93;3.27;;;11.00;99.90;;;;;;4886596;29;20218;-87
2020/12/15 00:27:56;;;;;;;5.17;3.47;;;11.00;99.90;;;;;;4901249;29;20183;-81
2020/12/15 00:30:24;;;;;;;4.10;3.37;;;10.90;99.90;;;;;;4895894;29;20179;-82
2020/12/15 00:32:49;;;;;;;5.10;3.43;;;10.90;99.90;;;;;;4890844;29;20191;-86
2020/12/15 00:35:16;;;;;;;6.87;3.80;;;10.90;99.90;;;;;;4887373;29;20651;-83
2020/12/15 00:37:42;;;;;;;4.60;3.03;;;10.90;99.90;;;;;;4893054;29;20661;-82
2020/12/15 00:40:11;;;;;;;7.13;3.60;;;10.90;99.90;;;;;;4886752;29;20186;-86
2020/12/15 00:42:36;;;;;;;4.23;3.60;;;10.90;99.90;;;;;;4904618;29;20257;-82
2020/12/15 00:45:03;;;;;;;5.97;3.70;;;10.90;99.90;;;;;;4902496;29;20233;-83
2020/12/15 00:47:28;;;;;;;6.50;3.60;;;11.00;99.90;;;;;;4900921;29;20181;-85
2020/12/15 00:49:54;;;;;;;5.43;3.23;;;11.00;99.90;;;;;;4899878;29;20182;-87
2020/12/15 00:52:24;;;;;;;4.83;3.50;;;11.00;99.90;;;;;;4900987;29;20569;-83
2020/12/15 00:54:50;;;;;;;5.00;3.47;;;11.00;99.90;;;;;;4901885;29;20162;-86
2020/12/15 00:57:16;;;;;;;5.23;3.23;;;11.00;99.90;;;;;;4920149;29;20221;-81
2020/12/15 00:59:45;;;;;;;5.20;3.40;;;11.00;99.90;;;;;;4922811;29;20150;-82
2020/12/15 01:02:11;;;;;;;5.60;3.27;;;11.00;99.90;;;;;;4918729;29;20282;-82
2020/12/15 01:04:37;;;;;;;4.60;3.40;;;11.00;99.90;;;;;;4903847;29;20167;-82
2020/12/15 01:07:06;;;;;;;4.97;3.20;;;11.00;99.90;;;;;;4892340;29;20178;-82
2020/12/15 01:09:32;;;;;;;5.50;3.43;;;11.00;99.90;;;;;;4887249;29;20187;-82
2020/12/15 01:12:18;;;;;;;4.37;3.40;;;11.00;99.90;;;;;;4882940;29;20201;-82
2020/12/15 01:14:48;;;;;;;5.43;3.67;;;11.00;99.90;;;;;;4884287;29;20195;-85
2020/12/15 01:17:15;;;;;;;5.67;3.63;;;11.00;99.90;;;;;;4883839;29;20241;-82
2020/12/15 01:19:41;;;;;;;6.73;3.47;;;11.00;99.90;;;;;;4888012;29;20322;-85
2020/12/15 01:22:07;;;;;;;4.53;3.33;;;11.00;99.90;;;;;;4881371;29;20185;-81
2020/12/15 01:24:33;;;;;;;5.50;3.53;;;11.10;99.90;;;;;;4888460;29;20170;-82
2020/12/15 01:26:58;;;;;;;4.97;3.40;;;11.10;99.90;;;;;;4903979;29;20176;-82
2020/12/15 01:29:24;;;;;;;5.53;3.23;;;11.10;99.90;;;;;;4895697;29;20183;-83
2020/12/15 01:31:52;;;;;;;3.97;3.20;;;11.10;99.90;;;;;;4885988;29;20534;-85
2020/12/15 01:34:20;;;;;;;5.23;3.03;;;11.10;99.90;;;;;;4882783;29;20242;-82
2020/12/15 01:36:46;;;;;;;4.00;3.30;;;11.20;99.90;;;;;;4881911;29;20286;-84
2020/12/15 01:39:12;;;;;;;5.13;3.37;;;11.10;99.90;;;;;;4888157;29;20250;-83
2020/12/15 01:41:38;;;;;;;5.70;3.40;;;11.10;99.90;;;;;;4893642;29;20187;-82
2020/12/15 01:44:05;;;;;;;7.10;4.20;;;11.00;99.90;;;;;;4896887;29;20169;-82
2020/12/15 01:46:32;;;;;;;3.97;3.33;;;11.00;99.90;;;;;;4897525;29;20243;-81
2020/12/15 01:48:58;;;;;;;4.40;3.57;;;11.10;99.90;;;;;;4915150;23;20293;-81
2020/12/15 01:51:26;;;;;;;5.70;3.83;;;11.10;99.90;;;;;;4927158;23;20242;-84
2020/12/15 01:53:55;;;;;;;6.17;3.57;;;11.10;99.90;;;;;;4901088;29;20237;-85
2020/12/15 01:56:22;;;;;;;5.90;3.63;;;11.10;99.90;;;;;;4901296;29;20258;-82
2020/12/15 01:58:52;;;;;;;5.13;3.60;;;11.10;99.90;;;;;;4902040;29;20174;-84
2020/12/15 02:01:25;;;;;;;4.87;3.50;;;11.10;99.90;;;;;;4924372;29;20166;-81
2020/12/15 02:03:51;;;;;;;5.97;3.80;;;11.10;99.90;;;;;;4925072;29;20190;-81
2020/12/15 02:06:18;;;;;;;5.13;3.53;;;11.10;99.90;;;;;;4922506;29;20177;-82
2020/12/15 02:08:50;;;;;;;5.07;3.63;;;11.10;99.90;;;;;;4925307;29;20186;-80
2020/12/15 02:11:17;;;;;;;5.43;3.77;;;11.20;99.90;;;;;;4925251;29;20150;-79
2020/12/15 02:13:43;;;;;;;4.63;3.50;;;11.10;99.90;;;;;;4913675;29;20193;-83
2020/12/15 02:16:42;;;;;;;5.10;3.80;;;11.00;99.90;;;;;;4908557;29;20213;-83
2020/12/15 02:19:15;;;;;;;5.47;3.70;;;11.00;99.90;;;;;;4906818;29;20190;-84
2020/12/15 02:22:07;;;;;;;5.87;3.73;;;11.00;99.90;;;;;;4902670;29;20228;-82
2020/12/15 02:24:38;;;;;;;5.13;3.73;;;11.00;99.90;;;;;;4902643;29;20198;-86
2020/12/15 02:27:04;;;;;;;6.70;4.33;;;11.10;99.90;;;;;;4902953;29;20715;-86
2020/12/15 02:29:30;;;;;;;5.60;3.40;;;11.10;99.90;;;;;;4902946;29;20174;-81
2020/12/15 02:31:56;;;;;;;7.37;4.17;;;11.10;99.90;;;;;;4904934;29;20226;-82
2020/12/15 02:34:21;;;;;;;6.07;4.10;;;11.00;99.90;;;;;;4906463;29;20608;-83
2020/12/15 02:36:47;;;;;;;7.73;4.10;;;11.10;99.90;;;;;;4910111;29;20214;-81
2020/12/15 02:39:15;;;;;;;6.03;4.27;;;11.10;99.90;;;;;;4911135;29;20714;-81
2020/12/15 02:41:41;;;;;;;5.27;3.77;;;11.00;99.90;;;;;;4905746;29;20662;-82
2020/12/15 02:44:08;;;;;;;6.37;4.03;;;11.00;99.90;;;;;;4902613;29;20198;-82
2020/12/15 02:46:34;;;;;;;5.67;3.50;;;11.10;99.90;;;;;;4902621;29;20186;-81
2020/12/15 02:49:01;;;;;;;6.13;4.10;;;11.00;99.90;;;;;;4902006;29;20185;-85
2020/12/15 02:51:28;;;;;;;4.97;3.63;;;11.10;99.90;;;;;;4900874;29;20233;-82
2020/12/15 02:53:53;;;;;;;5.30;3.90;;;11.00;99.90;;;;;;4901621;29;20178;-83
2020/12/15 02:56:21;;;;;;;5.73;4.10;;;11.00;99.90;;;;;;4902979;29;20216;-85
2020/12/15 02:58:47;;;;;;;5.70;3.87;;;11.00;99.90;;;;;;4900918;29;20206;-83
2020/12/15 03:01:13;;;;;;;5.20;3.87;;;11.10;99.90;;;;;;4899970;29;20614;-85
2020/12/15 03:03:38;;;;;;;6.90;4.30;;;11.20;99.90;;;;;;4901391;29;20237;-81
2020/12/15 03:06:04;;;;;;;5.60;4.27;;;11.10;99.90;;;;;;4900817;29;20715;-82
2020/12/15 03:08:30;;;;;;;6.70;4.43;;;11.10;99.90;;;;;;4901447;29;20178;-82
2020/12/15 03:10:55;;;;;;;6.63;4.00;;;11.30;99.90;;;;;;4889544;29;20266;-83
2020/12/15 03:13:21;;;;;;;5.97;4.07;;;11.10;99.90;;;;;;4881701;29;20187;-82
2020/12/15 03:15:46;;;;;;;7.40;3.93;;;11.10;99.90;;;;;;4883229;29;20203;-83
2020/12/15 03:18:12;;;;;;;5.83;4.20;;;11.20;99.90;;;;;;4881905;29;20192;-81
2020/12/15 03:20:38;;;;;;;6.20;4.37;;;11.10;99.90;;;;;;4882437;29;20250;-81
2020/12/15 03:23:05;;;;;;;5.33;4.07;;;11.10;99.90;;;;;;4887348;29;20183;-81
2020/12/15 03:25:36;;;;;;;6.37;4.60;;;11.10;99.90;;;;;;4888433;29;20183;-82
2020/12/15 03:28:02;;;;;;;5.43;4.20;;;11.10;99.90;;;;;;4883911;29;20682;-82
2020/12/15 03:30:28;;;;;;;5.43;4.50;;;11.20;99.90;;;;;;4881949;29;20175;-84
2020/12/15 03:32:54;;;;;;;5.70;4.33;;;11.20;99.90;;;;;;4881490;29;20227;-85
2020/12/15 03:35:19;;;;;;;7.50;4.80;;;11.20;99.90;;;;;;4885422;29;20246;-81
2020/12/15 03:37:45;;;;;;;6.43;4.33;;;11.20;99.90;;;;;;4884060;29;20186;-82
2020/12/15 03:40:11;;;;;;;4.97;4.20;;;11.20;99.90;;;;;;4899806;29;20175;-87
2020/12/15 03:42:36;;;;;;;6.47;4.50;;;11.20;99.90;;;;;;4898204;29;20247;-82
2020/12/15 03:45:04;;;;;;;5.60;4.60;;;11.10;99.90;;;;;;4895558;29;20187;-81
2020/12/15 03:47:30;;;;;;;6.03;4.30;;;11.20;99.90;;;;;;4904357;29;20196;-82
2020/12/15 03:49:55;;;;;;;5.03;4.33;;;11.10;99.90;;;;;;4901200;29;20206;-81
2020/12/15 03:52:23;;;;;;;7.43;4.30;;;11.20;99.90;;;;;;4894629;29;20214;-83
2020/12/15 03:54:52;;;;;;;8.97;4.87;;;11.20;99.90;;;;;;4892029;29;20243;-84
2020/12/15 03:57:21;;;;;;;5.93;4.70;;;11.30;99.90;;;;;;4885749;29;20274;-84
2020/12/15 03:59:46;;;;;;;6.37;4.90;;;11.20;99.90;;;;;;4883762;29;20179;-83
2020/12/15 04:02:13;;;;;;;5.43;4.43;;;11.30;99.90;;;;;;4882326;29;20189;-83
2020/12/15 04:04:39;;;;;;;7.03;4.20;;;11.20;99.90;;;;;;4899747;29;20171;-85
2020/12/15 04:07:05;;;;;;;7.30;4.53;;;11.20;99.90;;;;;;4900473;29;20176;-84
2020/12/15 04:09:31;;;;;;;6.63;4.40;;;11.20;99.90;;;;;;4902018;29;20265;-82
2020/12/15 04:11:56;;;;;;;5.97;4.50;;;11.20;99.90;;;;;;4904160;29;20190;-82
2020/12/15 04:14:22;;;;;;;6.83;4.77;;;11.30;99.90;;;;;;4900484;29;20174;-83
2020/12/15 04:16:48;;;;;;;7.17;4.40;;;11.40;99.90;;;;;;4899706;29;20229;-82
2020/12/15 04:19:13;;;;;;;6.33;4.07;;;11.50;99.90;;;;;;4902447;29;20186;-85
2020/12/15 04:21:39;;;;;;;5.43;4.33;;;11.40;99.90;;;;;;4903316;29;20191;-81
2020/12/15 04:24:06;;;;;;;5.50;4.03;;;11.50;99.90;;;;;;4902751;29;20186;-82
2020/12/15 04:26:31;;;;;;;6.37;4.40;;;11.50;99.90;;;;;;4903281;29;20443;-82
2020/12/15 04:28:57;;;;;;;5.77;3.93;;;11.60;99.90;;;;;;4908972;29;20185;-82
2020/12/15 04:31:27;;;;;;;4.70;3.70;;;11.40;99.90;;;;;;4911608;29;20170;-81
2020/12/15 04:33:53;;;;;;;9.37;3.97;;;11.30;99.90;;;;;;4906962;29;20762;-81
2020/12/15 04:36:21;;;;;;;6.77;4.43;;;11.30;99.90;;;;;;4900575;29;20225;-83
2020/12/15 04:38:47;;;;;;;5.87;4.43;;;11.30;99.90;;;;;;4907871;29;20162;-83
2020/12/15 04:41:15;;;;;;;7.20;4.37;;;11.20;99.90;;;;;;4922702;29;20187;-82
2020/12/15 04:43:42;;;;;;;4.90;3.93;;;11.20;99.90;;;;;;4921910;29;20181;-81
2020/12/15 04:46:12;;;;;;;7.33;4.20;;;11.20;99.90;;;;;;4920461;29;20171;-81
2020/12/15 04:48:47;;;;;;;5.33;3.90;;;11.10;99.90;;;;;;4918979;29;20182;-84
2020/12/15 04:51:22;;;;;;;7.07;4.47;;;11.20;99.90;;;;;;4905293;29;20225;-86
2020/12/15 04:54:26;;;;;;;5.57;4.03;;;11.10;99.90;;;;;;4904706;29;20245;-82
2020/12/15 04:57:00;;;;;;;6.03;4.10;;;11.20;99.90;;;;;;4914870;29;20257;-83
2020/12/15 04:59:35;;;;;;;7.73;4.73;;;11.20;99.90;;;;;;4913862;29;20174;-80
2020/12/15 05:02:05;;;;;;;6.73;3.97;;;11.20;99.90;;;;;;4910887;29;20166;-80
2020/12/15 05:04:41;;;;;;;6.10;4.67;;;11.30;99.90;;;;;;4884414;29;20218;-82
2020/12/15 05:07:08;;;;;;;5.20;4.17;;;11.20;99.90;;;;;;4897875;29;20183;-81
2020/12/15 05:09:35;;;;;;;7.17;4.40;;;11.20;99.90;;;;;;4883652;29;20183;-83
2020/12/15 05:12:02;;;;;;;8.03;4.27;;;11.10;99.90;;;;;;4900287;29;20170;-81
2020/12/15 05:14:28;;;;;;;5.50;4.17;;;11.10;99.90;;;;;;4903362;29;20160;-81
2020/12/15 05:16:54;;;;;;;6.23;4.10;;;11.10;99.90;;;;;;4903567;29;20226;-82
2020/12/15 05:19:20;;;;;;;4.87;3.87;;;11.10;99.90;;;;;;4901513;29;20179;-82
2020/12/15 05:21:59;;;;;;;5.97;4.43;;;11.00;99.90;;;;;;4903129;29;20216;-82
2020/12/15 05:24:28;;;;;;;4.83;4.10;;;11.00;99.90;;;;;;4893366;29;20194;-87
2020/12/15 05:27:17;;;;;;;5.90;4.03;;;11.00;99.90;;;;;;4887684;29;20699;-82
2020/12/15 05:30:18;;;;;;;5.63;3.30;;;11.00;99.90;;;;;;4884829;29;20659;-85
2020/12/15 05:32:52;;;;;;;6.30;4.03;;;11.00;99.90;;;;;;4886280;29;20206;-84
2020/12/15 05:35:26;;;;;;;5.13;3.90;;;11.00;99.90;;;;;;4891268;29;20158;-86
2020/12/15 05:37:53;;;;;;;5.40;4.07;;;11.00;99.90;;;;;;4884560;29;20209;-86
2020/12/15 05:40:19;;;;;;;5.17;3.90;;;11.00;99.90;;;;;;4887692;29;20167;-83
2020/12/15 05:42:55;;;;;;;5.10;3.90;;;11.00;99.90;;;;;;4888025;29;20215;-87
2020/12/15 05:45:22;;;;;;;5.03;3.87;;;11.00;99.90;;;;;;4885334;29;20186;-86
2020/12/15 05:47:59;;;;;;;5.80;3.67;;;11.00;99.90;;;;;;4884953;29;20235;-85
2020/12/15 05:50:25;;;;;;;5.23;3.40;;;11.00;99.90;;;;;;4885963;29;20214;-85
2020/12/15 05:53:08;;;;;;;4.60;3.67;;;11.00;99.90;;;;;;4888292;29;20179;-84
2020/12/15 05:55:38;;;;;;;5.30;3.50;;;11.10;99.90;;;;;;4902689;29;20238;-86
2020/12/15 05:58:05;;;;;;;5.03;3.53;;;11.10;99.90;;;;;;4918695;29;20171;-80
2020/12/15 06:00:32;;;;;;;4.73;3.57;;;11.10;99.90;;;;;;4897442;29;20224;-83
2020/12/15 06:02:58;;;;;;;5.73;3.70;;;11.20;99.90;;;;;;4897277;29;20185;-85
2020/12/15 06:05:35;;;;;;;5.80;3.70;;;11.10;99.90;;;;;;4906737;29;20178;-83
2020/12/15 06:08:02;;;;;;;6.80;4.23;;;11.20;99.90;;;;;;4907614;29;20159;-81
2020/12/15 06:10:30;;;;;;;7.33;3.60;;;11.30;99.90;;;;;;4900344;29;20203;-85
2020/12/15 06:12:58;;;;;;;5.60;3.03;;;11.30;99.90;;;;;;4885082;29;20172;-83
2020/12/15 06:15:24;;;;;;;5.43;3.30;;;11.30;99.90;;;;;;4888071;29;20194;-85
2020/12/15 06:18:02;;;;;;;5.30;3.00;;;11.20;99.90;;;;;;4885097;29;20238;-84
2020/12/15 06:20:35;;;;;;;3.67;2.77;;;11.30;99.90;;;;;;4883549;29;20523;-83
2020/12/15 06:23:03;;;;;;;3.60;2.43;;;11.20;99.90;;;;;;4884634;29;20678;-82
2020/12/15 06:25:37;;;;;;;3.73;2.50;;;11.20;99.90;;;;;;4884868;29;20171;-82
2020/12/15 06:28:12;;;;;;;4.53;2.47;;;11.20;99.90;;;;;;4883933;29;20207;-86
2020/12/15 06:30:45;;;;;;;4.70;2.40;;;11.10;99.90;;;;;;4883701;29;20227;-83
2020/12/15 06:33:15;;;;;;;3.83;2.20;;;11.10;99.90;;;;;;4883964;29;20171;-83
2020/12/15 06:35:45;;;;;;;4.93;2.60;;;11.00;99.90;;;;;;4891454;29;20218;-80
2020/12/15 06:38:19;;;;;;;5.97;2.83;;;11.10;99.90;;;;;;4899358;29;20205;-82
2020/12/15 06:40:46;;;;;;;5.57;3.10;;;11.20;99.90;;;;;;4886167;29;20182;-83
2020/12/15 06:43:22;;;;;;;4.43;2.73;;;11.10;99.90;;;;;;4881250;29;20250;-83
2020/12/15 06:45:49;;;;;;;6.03;2.60;;;11.20;99.90;;;;;;4881989;29;20322;-84
2020/12/15 06:48:22;;;;;;;3.37;2.23;;;11.10;99.90;;;;;;4883689;29;20175;-85
2020/12/15 06:50:48;;;;;;;4.13;2.33;;;11.20;99.90;;;;;;4884456;29;20640;-82
2020/12/15 06:53:18;;;;;;;4.67;2.37;;;11.10;99.90;;;;;;4883760;29;20187;-82
2020/12/15 06:55:44;;;;;;;3.83;2.60;;;11.20;99.90;;;;;;4896719;29;20229;-83
2020/12/15 06:58:10;;;;;;;3.53;2.10;;;11.10;99.90;;;;;;4907470;29;20221;-83
2020/12/15 07:00:38;;;;;;;2.93;2.30;;;11.10;99.90;;;;;;4919866;29;20166;-83
2020/12/15 07:03:05;;;;;;;3.73;2.43;;;11.10;99.90;;;;;;4905604;29;20209;-82
2020/12/15 07:05:34;;;;;;;3.23;2.47;;;11.10;99.90;;;;;;4903913;29;20285;-85
2020/12/15 07:08:12;;;;;;;4.93;2.53;;;11.20;99.90;;;;;;4903194;29;20178;-83
2020/12/15 07:10:42;;;;;;;3.73;2.43;;;11.20;99.90;;;;;;4894848;29;20280;-83
2020/12/15 07:13:10;;;;;;;4.43;2.50;;;11.10;99.90;;;;;;4884234;29;20207;-81
2020/12/15 07:15:37;;;;;;;5.00;2.70;;;11.30;99.90;;;;;;4880398;29;20179;-83
2020/12/15 07:18:04;;;;;;;4.63;2.43;;;11.10;99.90;;;;;;4883357;29;20179;-85
2020/12/15 07:20:30;;;;;;;5.17;2.43;;;11.20;99.90;;;;;;4883621;29;20183;-84
2020/12/15 07:22:56;;;;;;;4.27;2.80;;;11.10;99.90;;;;;;4885342;29;20183;-86
2020/12/15 07:25:22;;;;;;;3.10;2.50;;;11.00;99.90;;;;;;4883509;29;20538;-88
2020/12/15 07:27:49;;;;;;;4.53;2.87;;;11.20;99.90;;;;;;4884802;29;20191;-88
2020/12/15 07:30:21;;;;;;;5.23;3.40;;;11.00;99.90;;;;;;4891718;29;20220;-82
2020/12/15 07:32:48;;;;;;;5.37;3.33;;;11.10;99.90;;;;;;4900646;29;20199;-83
2020/12/15 07:35:20;;;;;;;5.33;3.00;;;11.10;99.90;;;;;;4901794;29;20182;-83
2020/12/15 07:37:49;;;;;;;4.67;2.53;;;11.30;99.90;;;;;;4906351;29;20210;-90
2020/12/15 07:40:17;;;;;;;4.30;2.53;;;11.20;99.90;;;;;;4897797;29;20186;-88
2020/12/15 07:42:59;;;;;;;5.17;2.77;;;11.20;99.90;;;;;;4912881;29;20936;-87
2020/12/15 07:45:27;;;;;;;4.40;2.67;;;11.20;99.90;;;;;;4902311;29;20190;-88
2020/12/15 07:47:55;;;;;;;3.50;2.70;;;11.10;99.90;;;;;;4905216;29;20205;-82
2020/12/15 07:50:27;;;;;;;5.00;3.57;;;11.10;99.90;;;;;;4904635;29;20245;-82
2020/12/15 07:52:56;;;;;;;4.47;3.03;;;11.20;99.90;;;;;;4908447;29;20182;-80
2020/12/15 07:55:23;;;;;;;6.00;2.87;;;11.20;99.90;;;;;;4910265;29;20494;-82
2020/12/15 07:57:50;;;;;;;3.27;2.60;;;11.10;99.90;;;;;;4912759;29;20175;-86
2020/12/15 08:00:19;;;;;;;4.77;2.63;;;11.10;99.90;;;;;;4909222;29;20178;-81
2020/12/15 08:02:48;;;;;;;3.67;2.47;;;11.10;99.90;;;;;;4902575;29;20202;-82
2020/12/15 08:05:16;;;;;;;4.73;3.17;;;11.10;99.90;;;;;;4903314;29;20714;-87
2020/12/15 08:07:54;;;;;;;4.43;3.40;;;11.20;99.90;;;;;;4907662;29;20243;-86
2020/12/15 08:10:25;;;;;;;5.37;3.40;;;11.20;99.90;;;;;;4906606;29;20203;-85
2020/12/15 08:12:56;;;;;;;4.93;3.40;;;11.20;99.90;;;;;;4904160;29;20207;-83
2020/12/15 08:15:22;;;;;;;5.67;3.30;;;11.30;99.90;;;;;;4901429;29;20237;-91
2020/12/15 08:17:51;;;;;;;5.17;3.83;;;11.30;99.90;;;;;;4898059;29;20198;-89
2020/12/15 08:20:25;;;;;;;4.93;4.00;;;11.30;99.90;;;;;;4892785;29;20169;-89
2020/12/15 08:23:13;;;;;;;8.33;4.17;;;11.30;99.90;;;;;;4895700;29;20246;-86
2020/12/15 08:25:43;;;;;;;5.80;4.20;;;11.30;99.90;;;;;;4890447;29;20273;-88
2020/12/15 08:28:27;;;;;;;5.97;4.53;;;11.40;99.90;;;;;;4893922;29;20179;-85
2020/12/15 08:30:55;;;;;;;6.53;4.57;;;11.40;99.90;;;;;;4883312;29;20211;-81
2020/12/15 08:33:26;;;;;;;6.63;4.43;;;11.40;99.90;;;;;;4886519;29;20187;-81
2020/12/15 08:35:54;;;;;;;6.70;4.53;;;11.50;99.90;;;;;;4873168;29;20215;-85
2020/12/15 08:38:25;;;;;;;7.30;4.53;;;11.50;99.90;;;;;;4905985;29;20305;-90
2020/12/15 08:40:56;;;;;;;7.97;4.73;;;11.40;99.90;;;;;;4914712;29;20159;-85
2020/12/15 08:43:22;;;;;;;6.63;4.80;;;11.40;99.90;;;;;;4913908;29;20206;-81
2020/12/15 08:45:48;;;;;;;7.40;4.70;;;11.40;99.90;;;;;;4901433;29;20186;-81
2020/12/15 08:48:21;;;;;;;7.57;4.90;;;11.40;99.90;;;;;;4891056;29;20270;-83
2020/12/15 08:50:47;;;;;;;8.87;5.00;;;11.40;99.90;;;;;;4883790;29;20195;-88
2020/12/15 08:53:14;;;;;;;7.70;4.87;;;11.30;99.90;;;;;;4886157;29;20174;-88
2020/12/15 08:55:44;;;;;;;8.40;5.40;;;11.40;99.90;;;;;;4892947;29;20243;-89
2020/12/15 08:58:10;;;;;;;6.97;5.20;;;11.50;99.90;;;;;;4895618;29;20162;-84
2020/12/15 09:00:43;;;;;;;7.07;4.87;;;11.40;99.90;;;;;;4909667;29;20189;-83
2020/12/15 09:03:11;;;;;;;10.83;5.67;;;11.40;99.90;;;;;;4919931;29;20182;-83
2020/12/15 09:05:55;;;;;;;7.07;5.57;;;11.50;99.90;;;;;;4913949;29;20202;-80
2020/12/15 09:08:25;;;;;;;7.10;5.57;;;11.40;99.90;;;;;;4911630;29;20166;-81
2020/12/15 09:10:56;;;;;;;8.30;6.73;;;11.30;99.90;;;;;;4918010;29;20239;-82
2020/12/15 09:13:23;;;;;;;10.33;6.67;;;11.40;99.90;;;;;;4919908;29;20245;-80
2020/12/15 09:16:23;;;;;;;10.40;7.20;;;11.30;99.90;;;;;;4922401;29;20209;-83
2020/12/15 09:18:50;;;;;;;8.67;6.90;;;11.40;99.90;;;;;;4902231;29;20294;-84
2020/12/15 09:21:18;;;;;;;9.77;7.50;;;11.50;99.90;;;;;;4884160;29;20179;-81
2020/12/15 09:23:53;;;;;;;10.60;7.57;;;11.60;99.90;;;;;;4887494;29;20190;-83
2020/12/15 09:26:21;;;;;;;9.53;7.50;;;11.50;99.90;;;;;;4889502;29;20198;-81
2020/12/15 09:28:48;;;;;;;9.80;7.57;;;11.60;99.90;;;;;;4894174;29;20178;-81
2020/12/15 09:31:18;;;;;;;12.87;7.73;;;11.60;99.90;;;;;;4892008;29;20187;-81
2020/12/15 09:33:44;;;;;;;10.63;8.93;;;11.70;99.90;;;;;;4896272;29;20288;-81
2020/12/15 09:36:16;;;;;;;13.33;8.43;;;11.60;99.90;;;;;;4894189;29;20194;-79
2020/12/15 09:38:46;;;;;;;10.53;8.40;;;11.50;99.90;;;;;;4892289;29;20191;-78
2020/12/15 09:41:12;;;;;;;9.70;8.07;;;11.60;99.90;;;;;;4893142;29;20187;-79
2020/12/15 09:43:37;;;;;;;12.83;9.33;;;11.70;99.90;;;;;;4892757;29;20202;-78
2020/12/15 09:46:04;;;;;;;11.37;8.97;;;11.60;99.90;;;;;;4893281;29;20183;-80
2020/12/15 09:48:32;;;;;;;9.97;8.50;;;11.60;99.90;;;;;;4901885;29;20266;-79
2020/12/15 09:51:00;;;;;;;12.77;9.37;;;11.80;99.90;;;;;;4898911;29;20183;-82
2020/12/15 09:56:59;;;;;;;14.87;9.80;;;11.60;99.90;;;;;;4898992;29;20201;-78
2020/12/15 09:59:24;;;;;;;12.50;9.00;;;11.60;99.90;;;;;;4915400;29;20697;-79
2020/12/15 10:01:50;;;;;;;12.77;9.47;;;11.50;99.90;;;;;;4905027;29;20185;-79
2020/12/15 10:04:15;;;;;;;11.10;9.00;;;11.40;99.90;;;;;;4906386;29;20182;-78
2020/12/15 10:06:43;;;;;;;11.23;9.20;;;11.40;99.90;;;;;;4904022;29;20170;-85
2020/12/15 10:09:09;;;;;;;12.57;9.03;;;11.50;99.90;;;;;;4907359;29;20230;-87
2020/12/15 10:11:38;;;;;;;13.30;9.53;;;11.50;99.90;;;;;;4913863;29;20186;-79
2020/12/15 10:14:05;;;;;;;12.27;9.57;;;11.50;99.90;;;;;;4911398;29;20186;-78
2020/12/15 10:16:30;;;;;;;14.87;10.07;;;11.50;99.90;;;;;;4920329;29;20242;-78
2020/12/15 10:18:59;;;;;;;13.23;10.10;;;11.50;99.90;;;;;;4923816;29;20178;-80
2020/12/15 10:21:25;;;;;;;14.77;9.47;;;11.50;99.90;;;;;;4920843;29;20242;-78
2020/12/15 10:23:51;;;;;;;12.50;9.93;;;11.60;99.90;;;;;;4917646;29;20274;-79
2020/12/15 10:26:22;;;;;;;13.43;10.30;;;11.50;99.90;;;;;;4917992;29;20646;-79
2020/12/15 10:28:49;;;;;;;13.67;10.60;;;11.70;99.90;;;;;;4917790;29;20230;-80
2020/12/15 10:31:17;;;;;;;12.53;10.87;;;11.70;99.90;;;;;;4916411;29;20209;-83
2020/12/15 10:33:46;;;;;;;20.07;10.80;;;11.70;99.90;;;;;;4910560;29;20163;-80
2020/12/15 10:36:47;;;;;;;13.60;11.30;;;11.60;99.90;;;;;;4909740;29;20206;-80
2020/12/15 10:39:18;;;;;;;15.63;11.33;;;11.70;99.90;;;;;;4909228;29;20202;-83
2020/12/15 10:41:44;;;;;;;13.63;11.57;;;11.70;99.90;;;;;;4909649;29;20171;-81
2020/12/15 10:44:15;;;;;;;17.67;11.10;;;11.60;99.90;;;;;;4910857;29;20186;-78
2020/12/15 10:47:01;;;;;;;13.60;11.03;;;11.50;99.90;;;;;;4912502;29;20658;-81
2020/12/15 10:49:37;;;;;;;12.03;10.67;;;11.50;99.90;;;;;;4924186;29;20182;-87
2020/12/15 10:52:24;;;;;;;14.17;10.43;;;11.50;99.90;;;;;;4924930;29;20215;-81
2020/12/15 10:58:26;;;;;;;13.00;11.00;;;11.50;99.90;;;;;;4924527;29;20226;-87
2020/12/15 11:00:53;;;;;;;15.47;12.30;;;11.60;99.90;;;;;;4924285;29;20171;-79
2020/12/15 11:03:31;;;;;;;14.70;11.90;;;11.60;99.90;;;;;;4918325;29;20194;-82
2020/12/15 11:06:06;;;;;;;13.63;12.03;;;11.60;99.90;;;;;;4917844;29;20177;-80
2020/12/15 11:11:59;;;;;;;15.20;11.90;;;11.50;99.90;;;;;;4920531;29;20264;-79
2020/12/15 11:14:33;;;;;;;15.43;11.53;;;11.50;99.90;;;;;;4923092;29;20158;-82
2020/12/15 11:17:08;;;;;;;12.73;11.00;;;11.50;99.90;;;;;;4922723;29;20205;-80
2020/12/15 11:19:39;;;;;;;12.80;11.30;;;11.50;99.90;;;;;;4922187;29;20234;-78
2020/12/15 11:22:11;;;;;;;13.27;11.10;;;11.50;99.90;;;;;;4918949;29;20177;-81
2020/12/15 11:24:42;;;;;;;12.60;11.00;;;11.50;99.90;;;;;;4916349;29;20182;-82
2020/12/15 11:27:14;;;;;;;12.20;10.70;;;11.60;99.90;;;;;;4921893;29;20182;-83
2020/12/15 11:30:30;;;;;;;12.60;10.40;;;11.70;99.90;;;;;;4914783;29;20170;-83
2020/12/15 11:32:58;;;;;;;16.03;13.53;;;11.60;99.90;;;;;;4917311;29;20178;-84
2020/12/15 11:35:24;;;;;;;14.77;13.23;;;11.50;99.90;;;;;;4905497;29;20175;-88
2020/12/15 11:37:50;;;;;;;12.40;11.10;;;11.50;99.90;;;;;;4913524;29;20223;-81
2020/12/15 11:40:17;;;;;;;12.57;11.17;;;11.50;99.90;;;;;;4917454;29;20177;-90
2020/12/15 11:42:44;;;;;;;13.40;11.60;;;11.50;99.90;;;;;;4913447;29;20166;-92
2020/12/15 11:45:14;;;;;;;14.27;10.97;;;11.70;99.90;;;;;;4915792;29;20221;-80
2020/12/15 11:47:43;;;;;;;13.50;10.80;;;11.60;99.90;;;;;;4907030;29;20257;-91
2020/12/15 11:50:09;;;;;;;13.47;11.23;;;11.80;99.90;;;;;;4907820;29;20278;-91
2020/12/15 11:52:46;;;;;;;12.60;10.97;;;11.80;99.90;;;;;;4913178;29;20174;-92
2020/12/15 11:55:15;;;;;;;11.80;10.60;;;11.70;99.90;;;;;;4896696;29;20190;-92
2020/12/15 11:57:44;;;;;;;11.83;10.70;;;11.80;99.90;;;;;;4908790;29;20202;-91
2020/12/15 12:00:10;;;;;;;13.40;11.20;;;11.70;99.90;;;;;;4912679;29;20177;-91
2020/12/15 12:02:36;;;;;;;12.73;11.43;;;11.70;99.90;;;;;;4912655;29;20173;-83
2020/12/15 12:05:02;;;;;;;12.97;11.57;;;11.80;99.90;;;;;;4919989;29;20194;-84
2020/12/15 12:07:28;;;;;;;13.20;11.83;;;11.80;99.90;;;;;;4903662;29;20179;-85
2020/12/15 12:09:54;;;;;;;13.93;12.03;;;11.90;99.90;;;;;;4902205;29;20186;-91
2020/12/15 12:12:21;;;;;;;13.57;11.60;;;11.80;99.90;;;;;;4886851;29;20254;-89
2020/12/15 12:14:48;;;;;;;13.43;12.00;;;11.90;99.90;;;;;;4889608;29;20179;-87
2020/12/15 12:17:13;;;;;;;14.97;13.00;;;12.00;99.90;;;;;;4887153;29;20638;-83
2020/12/15 12:19:39;;;;;;;13.60;11.70;;;12.00;99.90;;;;;;4886340;29;20171;-80
2020/12/15 12:22:05;;;;;;;13.07;11.77;;;12.00;99.90;;;;;;4892210;29;20171;-86
2020/12/15 12:24:31;;;;;;;15.17;12.70;;;11.90;99.90;;;;;;4895099;29;20199;-85
2020/12/15 12:26:58;;;;;;;14.93;12.33;;;11.90;99.90;;;;;;4892198;29;20215;-83
2020/12/15 12:29:24;;;;;;;14.97;12.73;;;11.80;99.90;;;;;;4887265;29;20246;-85
2020/12/15 12:31:52;;;;;;;15.80;13.37;;;12.00;99.90;;;;;;4892502;29;20651;-88
2020/12/15 12:34:18;;;;;;;14.67;13.10;;;12.00;99.90;;;;;;4894817;29;20218;-87
2020/12/15 12:36:45;;;;;;;14.93;13.10;;;11.90;99.90;;;;;;4896733;29;20226;-82
2020/12/15 12:39:13;;;;;;;16.33;13.30;;;11.90;99.90;;;;;;4930017;29;20209;-88
2020/12/15 12:41:53;;;;;;;16.23;12.77;;;11.90;99.90;;;;;;4897491;29;20175;-93
2020/12/15 12:44:22;;;;;;;14.50;13.00;;;12.00;99.90;;;;;;4877179;29;20280;-80
2020/12/15 12:46:49;;;;;;;14.20;12.40;;;12.10;99.90;;;;;;4899418;29;20171;-82
2020/12/15 12:49:15;;;;;;;13.53;12.07;;;12.10;99.90;;;;;;4899495;29;20292;-83
2020/12/15 12:51:47;;;;;;;12.83;11.47;;;12.20;99.90;;;;;;4920253;29;20265;-81
2020/12/15 12:54:12;;;;;;;15.67;11.77;;;12.30;99.90;;;;;;4920660;29;20162;-86
2020/12/15 12:56:44;;;;;;;12.60;11.30;;;12.30;99.90;;;;;;4920012;29;20242;-80
2020/12/15 12:59:11;;;;;;;16.30;12.30;;;12.30;99.90;;;;;;4921779;29;20158;-88
2020/12/15 13:01:38;;;;;;;13.23;11.80;;;12.40;99.90;;;;;;4919182;29;20199;-90
2020/12/15 13:04:16;;;;;;;13.57;11.27;;;12.60;99.90;;;;;;4914808;29;20186;-92